sensor_id;sensor_type;location;lat;lon;timestamp;temperature;humidity
32895;DHT22;19251;49.484;8.260;2023-04-29T00:03:55;16.20;26.70
32895;DHT22;19251;49.484;8.260;2023-04-29T00:08:57;16.10;26.70
32895;DHT22;19251;49.484;8.260;2023-04-29T00:13:59;16.00;26.80
32895;DHT22;19251;49.484;8.260;2023-04-29T00:19:02;16.00;26.80
32895;DHT22;19251;49.484;8.260;2023-04-29T00:24:04;15.90;26.80
32895;DHT22;19251;49.484;8.260;2023-04-29T00:29:06;15.90;27.00
32895;DHT22;19251;49.484;8.260;2023-04-29T00:34:08;15.90;27.10
32895;DHT22;19251;49.484;8.260;2023-04-29T00:39:10;15.90;27.20
32895;DHT22;19251;49.484;8.260;2023-04-29T00:44:16;15.80;27.20
32895;DHT22;19251;49.484;8.260;2023-04-29T00:49:18;15.80;27.20
32895;DHT22;19251;49.484;8.260;2023-04-29T00:54:21;15.80;27.20
32895;DHT22;19251;49.484;8.260;2023-04-29T00:59:23;15.70;27.30
32895;DHT22;19251;49.484;8.260;2023-04-29T01:04:32;15.60;27.30
32895;DHT22;19251;49.484;8.260;2023-04-29T01:14:53;15.60;27.50
32895;DHT22;19251;49.484;8.260;2023-04-29T01:19:56;15.50;27.60
32895;DHT22;19251;49.484;8.260;2023-04-29T01:24:59;15.50;27.50
32895;DHT22;19251;49.484;8.260;2023-04-29T01:30:12;15.50;27.70
32895;DHT22;19251;49.484;8.260;2023-04-29T01:35:29;15.40;27.80
32895;DHT22;19251;49.484;8.260;2023-04-29T01:40:37;15.50;27.90
32895;DHT22;19251;49.484;8.260;2023-04-29T01:45:44;15.40;27.90
32895;DHT22;19251;49.484;8.260;2023-04-29T01:50:47;15.40;28.10
32895;DHT22;19251;49.484;8.260;2023-04-29T01:55:49;15.30;28.00
32895;DHT22;19251;49.484;8.260;2023-04-29T02:00:52;15.30;28.00
32895;DHT22;19251;49.484;8.260;2023-04-29T02:05:54;15.20;28.10
32895;DHT22;19251;49.484;8.260;2023-04-29T02:10:57;15.10;27.90
32895;DHT22;19251;49.484;8.260;2023-04-29T02:16:08;15.10;27.90
32895;DHT22;19251;49.484;8.260;2023-04-29T02:21:11;14.90;27.90
32895;DHT22;19251;49.484;8.260;2023-04-29T02:26:13;14.80;27.90
32895;DHT22;19251;49.484;8.260;2023-04-29T02:31:16;14.70;28.00
32895;DHT22;19251;49.484;8.260;2023-04-29T02:36:21;14.70;28.10
32895;DHT22;19251;49.484;8.260;2023-04-29T02:41:24;14.70;28.60
32895;DHT22;19251;49.484;8.260;2023-04-29T02:46:27;14.60;27.80
32895;DHT22;19251;49.484;8.260;2023-04-29T02:51:29;14.40;27.70
32895;DHT22;19251;49.484;8.260;2023-04-29T02:56:31;14.30;27.60
32895;DHT22;19251;49.484;8.260;2023-04-29T03:01:33;14.30;27.70
32895;DHT22;19251;49.484;8.260;2023-04-29T03:06:36;14.20;27.80
32895;DHT22;19251;49.484;8.260;2023-04-29T03:11:38;14.10;28.00
32895;DHT22;19251;49.484;8.260;2023-04-29T03:16:40;14.10;28.00
32895;DHT22;19251;49.484;8.260;2023-04-29T03:21:42;14.10;27.90
32895;DHT22;19251;49.484;8.260;2023-04-29T03:26:45;14.00;27.80
32895;DHT22;19251;49.484;8.260;2023-04-29T03:31:47;14.00;28.90
32895;DHT22;19251;49.484;8.260;2023-04-29T03:36:50;14.00;28.30
32895;DHT22;19251;49.484;8.260;2023-04-29T03:41:52;13.90;28.00
32895;DHT22;19251;49.484;8.260;2023-04-29T03:46:56;13.90;28.00
32895;DHT22;19251;49.484;8.260;2023-04-29T03:51:58;13.70;27.90
32895;DHT22;19251;49.484;8.260;2023-04-29T03:57:01;13.90;28.20
32895;DHT22;19251;49.484;8.260;2023-04-29T04:02:04;13.80;28.40
32895;DHT22;19251;49.484;8.260;2023-04-29T04:07:08;13.80;28.30
32895;DHT22;19251;49.484;8.260;2023-04-29T04:12:13;13.80;28.30
32895;DHT22;19251;49.484;8.260;2023-04-29T04:22:18;13.90;28.40
32895;DHT22;19251;49.484;8.260;2023-04-29T04:27:24;14.00;28.50
32895;DHT22;19251;49.484;8.260;2023-04-29T04:32:27;14.10;28.60
32895;DHT22;19251;49.484;8.260;2023-04-29T04:37:30;14.10;28.70
32895;DHT22;19251;49.484;8.260;2023-04-29T04:42:33;14.20;29.10
32895;DHT22;19251;49.484;8.260;2023-04-29T04:47:36;14.20;29.10
32895;DHT22;19251;49.484;8.260;2023-04-29T04:52:39;14.30;29.10
32895;DHT22;19251;49.484;8.260;2023-04-29T04:57:46;14.40;29.40
32895;DHT22;19251;49.484;8.260;2023-04-29T05:02:48;14.50;29.60
32895;DHT22;19251;49.484;8.260;2023-04-29T05:07:51;14.70;30.10
32895;DHT22;19251;49.484;8.260;2023-04-29T05:12:55;14.80;30.00
32895;DHT22;19251;49.484;8.260;2023-04-29T05:17:58;14.90;30.80
32895;DHT22;19251;49.484;8.260;2023-04-29T05:23:00;15.10;30.00
32895;DHT22;19251;49.484;8.260;2023-04-29T05:28:03;15.20;30.00
32895;DHT22;19251;49.484;8.260;2023-04-29T05:33:06;15.20;29.90
32895;DHT22;19251;49.484;8.260;2023-04-29T05:38:08;15.30;29.70
32895;DHT22;19251;49.484;8.260;2023-04-29T05:43:12;15.40;29.60
32895;DHT22;19251;49.484;8.260;2023-04-29T05:48:15;15.50;29.60
32895;DHT22;19251;49.484;8.260;2023-04-29T05:53:17;15.60;29.70
32895;DHT22;19251;49.484;8.260;2023-04-29T05:58:19;15.70;29.80
32895;DHT22;19251;49.484;8.260;2023-04-29T06:03:22;15.80;29.90
32895;DHT22;19251;49.484;8.260;2023-04-29T06:08:26;15.90;29.90
32895;DHT22;19251;49.484;8.260;2023-04-29T06:13:32;16.00;30.00
32895;DHT22;19251;49.484;8.260;2023-04-29T06:18:35;16.30;30.20
32895;DHT22;19251;49.484;8.260;2023-04-29T06:23:37;16.40;30.30
32895;DHT22;19251;49.484;8.260;2023-04-29T06:28:40;16.70;29.80
32895;DHT22;19251;49.484;8.260;2023-04-29T06:33:42;16.80;28.90
32895;DHT22;19251;49.484;8.260;2023-04-29T06:38:44;16.80;28.60
32895;DHT22;19251;49.484;8.260;2023-04-29T06:43:47;16.90;28.20
32895;DHT22;19251;49.484;8.260;2023-04-29T06:48:50;16.90;28.00
32895;DHT22;19251;49.484;8.260;2023-04-29T06:58:54;17.00;28.10
32895;DHT22;19251;49.484;8.260;2023-04-29T07:03:56;17.20;28.00
32895;DHT22;19251;49.484;8.260;2023-04-29T07:08:59;17.30;28.00
32895;DHT22;19251;49.484;8.260;2023-04-29T07:14:01;17.40;27.90
32895;DHT22;19251;49.484;8.260;2023-04-29T07:19:04;17.50;28.50
32895;DHT22;19251;49.484;8.260;2023-04-29T07:24:07;17.50;27.20
32895;DHT22;19251;49.484;8.260;2023-04-29T07:29:09;17.50;26.90
32895;DHT22;19251;49.484;8.260;2023-04-29T07:34:12;17.40;26.60
32895;DHT22;19251;49.484;8.260;2023-04-29T07:39:14;17.30;26.50
32895;DHT22;19251;49.484;8.260;2023-04-29T07:44:19;17.20;26.10
32895;DHT22;19251;49.484;8.260;2023-04-29T07:49:22;17.20;26.00
32895;DHT22;19251;49.484;8.260;2023-04-29T07:54:25;17.10;25.70
32895;DHT22;19251;49.484;8.260;2023-04-29T07:59:29;17.00;25.40
32895;DHT22;19251;49.484;8.260;2023-04-29T08:04:31;17.00;25.30
32895;DHT22;19251;49.484;8.260;2023-04-29T08:09:35;16.90;25.40
32895;DHT22;19251;49.484;8.260;2023-04-29T08:14:38;16.90;25.30
32895;DHT22;19251;49.484;8.260;2023-04-29T08:19:40;16.90;25.00
32895;DHT22;19251;49.484;8.260;2023-04-29T08:24:42;16.80;24.80
32895;DHT22;19251;49.484;8.260;2023-04-29T08:29:46;16.80;24.50
32895;DHT22;19251;49.484;8.260;2023-04-29T08:34:48;16.80;24.20
32895;DHT22;19251;49.484;8.260;2023-04-29T08:39:50;16.80;24.40
32895;DHT22;19251;49.484;8.260;2023-04-29T08:44:52;16.80;23.90
32895;DHT22;19251;49.484;8.260;2023-04-29T08:49:55;16.80;23.90
32895;DHT22;19251;49.484;8.260;2023-04-29T08:54:58;16.70;23.80
32895;DHT22;19251;49.484;8.260;2023-04-29T09:00:00;16.80;24.60
32895;DHT22;19251;49.484;8.260;2023-04-29T09:05:09;16.90;24.10
32895;DHT22;19251;49.484;8.260;2023-04-29T09:10:12;17.10;23.70
32895;DHT22;19251;49.484;8.260;2023-04-29T09:15:15;17.10;23.70
32895;DHT22;19251;49.484;8.260;2023-04-29T09:25:23;17.20;23.00
32895;DHT22;19251;49.484;8.260;2023-04-29T09:30:25;17.30;23.30
32895;DHT22;19251;49.484;8.260;2023-04-29T09:35:27;17.40;23.40
32895;DHT22;19251;49.484;8.260;2023-04-29T09:40:30;17.50;23.40
32895;DHT22;19251;49.484;8.260;2023-04-29T09:45:37;17.70;23.60
32895;DHT22;19251;49.484;8.260;2023-04-29T09:50:40;18.10;23.10
32895;DHT22;19251;49.484;8.260;2023-04-29T10:00:54;18.60;22.30
32895;DHT22;19251;49.484;8.260;2023-04-29T10:05:57;18.80;22.10
32895;DHT22;19251;49.484;8.260;2023-04-29T10:11:00;19.00;20.80
32895;DHT22;19251;49.484;8.260;2023-04-29T10:21:13;19.40;21.10
32895;DHT22;19251;49.484;8.260;2023-04-29T10:26:16;19.80;19.80
32895;DHT22;19251;49.484;8.260;2023-04-29T10:31:19;19.90;19.00
32895;DHT22;19251;49.484;8.260;2023-04-29T10:36:23;19.80;18.60
32895;DHT22;19251;49.484;8.260;2023-04-29T10:41:32;19.70;18.30
32895;DHT22;19251;49.484;8.260;2023-04-29T10:46:35;19.60;18.20
32895;DHT22;19251;49.484;8.260;2023-04-29T10:51:42;19.40;18.10
32895;DHT22;19251;49.484;8.260;2023-04-29T10:56:51;19.40;18.20
32895;DHT22;19251;49.484;8.260;2023-04-29T11:01:54;19.40;18.10
32895;DHT22;19251;49.484;8.260;2023-04-29T11:06:56;19.40;17.70
32895;DHT22;19251;49.484;8.260;2023-04-29T11:12:03;19.50;18.00
32895;DHT22;19251;49.484;8.260;2023-04-29T11:17:14;19.60;17.60
32895;DHT22;19251;49.484;8.260;2023-04-29T11:27:19;19.60;17.70
32895;DHT22;19251;49.484;8.260;2023-04-29T11:32:24;19.60;17.50
32895;DHT22;19251;49.484;8.260;2023-04-29T11:37:27;19.50;17.40
32895;DHT22;19251;49.484;8.260;2023-04-29T11:42:29;19.60;18.40
32895;DHT22;19251;49.484;8.260;2023-04-29T11:47:31;19.60;17.80
32895;DHT22;19251;49.484;8.260;2023-04-29T11:52:37;19.60;17.80
32895;DHT22;19251;49.484;8.260;2023-04-29T11:57:39;19.60;17.80
32895;DHT22;19251;49.484;8.260;2023-04-29T12:02:44;19.60;17.80
32895;DHT22;19251;49.484;8.260;2023-04-29T12:07:48;19.50;17.80
32895;DHT22;19251;49.484;8.260;2023-04-29T12:12:51;19.60;17.70
32895;DHT22;19251;49.484;8.260;2023-04-29T12:17:54;19.60;17.10
32895;DHT22;19251;49.484;8.260;2023-04-29T12:23:09;19.60;17.10
32895;DHT22;19251;49.484;8.260;2023-04-29T12:28:12;19.70;17.40
32895;DHT22;19251;49.484;8.260;2023-04-29T12:33:18;19.70;17.10
32895;DHT22;19251;49.484;8.260;2023-04-29T12:38:24;19.80;17.10
32895;DHT22;19251;49.484;8.260;2023-04-29T12:43:30;19.80;16.90
32895;DHT22;19251;49.484;8.260;2023-04-29T12:48:34;19.90;16.60
32895;DHT22;19251;49.484;8.260;2023-04-29T12:53:36;19.90;16.50
32895;DHT22;19251;49.484;8.260;2023-04-29T12:58:39;19.80;16.00
32895;DHT22;19251;49.484;8.260;2023-04-29T13:03:41;19.90;16.50
32895;DHT22;19251;49.484;8.260;2023-04-29T13:08:44;20.00;16.40
32895;DHT22;19251;49.484;8.260;2023-04-29T13:13:46;20.20;16.10
32895;DHT22;19251;49.484;8.260;2023-04-29T13:18:48;20.20;15.10
32895;DHT22;19251;49.484;8.260;2023-04-29T13:24:10;20.10;15.20
32895;DHT22;19251;49.484;8.260;2023-04-29T13:29:12;20.20;15.00
32895;DHT22;19251;49.484;8.260;2023-04-29T13:34:14;20.20;14.90
32895;DHT22;19251;49.484;8.260;2023-04-29T13:39:16;20.10;14.90
32895;DHT22;19251;49.484;8.260;2023-04-29T13:44:21;20.20;15.40
32895;DHT22;19251;49.484;8.260;2023-04-29T13:49:37;20.30;15.20
32895;DHT22;19251;49.484;8.260;2023-04-29T13:54:59;20.40;14.90
32895;DHT22;19251;49.484;8.260;2023-04-29T14:00:21;20.50;14.50
32895;DHT22;19251;49.484;8.260;2023-04-29T14:05:26;20.60;14.40
32895;DHT22;19251;49.484;8.260;2023-04-29T14:10:29;20.60;14.30
32895;DHT22;19251;49.484;8.260;2023-04-29T14:15:31;20.60;14.30
32895;DHT22;19251;49.484;8.260;2023-04-29T14:20:34;20.70;14.10
32895;DHT22;19251;49.484;8.260;2023-04-29T14:25:36;20.90;15.10
32895;DHT22;19251;49.484;8.260;2023-04-29T14:30:38;21.70;15.60
32895;DHT22;19251;49.484;8.260;2023-04-29T14:35:40;22.70;14.60
32895;DHT22;19251;49.484;8.260;2023-04-29T14:40:42;23.90;12.20
32895;DHT22;19251;49.484;8.260;2023-04-29T14:45:44;24.00;12.30
32895;DHT22;19251;49.484;8.260;2023-04-29T14:50:46;24.20;9.90
32895;DHT22;19251;49.484;8.260;2023-04-29T14:55:48;23.80;9.60
32895;DHT22;19251;49.484;8.260;2023-04-29T15:00:50;23.50;9.70
32895;DHT22;19251;49.484;8.260;2023-04-29T15:05:52;23.00;9.50
32895;DHT22;19251;49.484;8.260;2023-04-29T15:10:55;22.60;10.20
32895;DHT22;19251;49.484;8.260;2023-04-29T15:15:58;22.30;9.90
32895;DHT22;19251;49.484;8.260;2023-04-29T15:21:00;22.10;9.80
32895;DHT22;19251;49.484;8.260;2023-04-29T15:26:02;21.80;10.20
32895;DHT22;19251;49.484;8.260;2023-04-29T15:31:04;21.80;10.40
32895;DHT22;19251;49.484;8.260;2023-04-29T15:36:06;21.50;10.80
32895;DHT22;19251;49.484;8.260;2023-04-29T15:41:09;21.10;11.20
32895;DHT22;19251;49.484;8.260;2023-04-29T15:46:11;21.00;11.40
32895;DHT22;19251;49.484;8.260;2023-04-29T15:51:13;21.00;11.60
32895;DHT22;19251;49.484;8.260;2023-04-29T15:56:16;20.90;12.00
32895;DHT22;19251;49.484;8.260;2023-04-29T16:01:18;20.80;12.10
32895;DHT22;19251;49.484;8.260;2023-04-29T16:06:20;20.70;12.30
32895;DHT22;19251;49.484;8.260;2023-04-29T16:11:22;20.70;12.60
32895;DHT22;19251;49.484;8.260;2023-04-29T16:16:24;20.50;12.40
32895;DHT22;19251;49.484;8.260;2023-04-29T16:21:26;20.50;12.60
32895;DHT22;19251;49.484;8.260;2023-04-29T16:26:28;20.40;12.80
32895;DHT22;19251;49.484;8.260;2023-04-29T16:31:31;20.20;12.90
32895;DHT22;19251;49.484;8.260;2023-04-29T16:36:33;20.20;13.10
32895;DHT22;19251;49.484;8.260;2023-04-29T16:41:35;20.20;13.40
32895;DHT22;19251;49.484;8.260;2023-04-29T16:46:38;20.30;13.60
32895;DHT22;19251;49.484;8.260;2023-04-29T16:51:40;20.40;13.60
32895;DHT22;19251;49.484;8.260;2023-04-29T16:56:42;20.30;13.50
32895;DHT22;19251;49.484;8.260;2023-04-29T17:01:45;20.20;13.80
32895;DHT22;19251;49.484;8.260;2023-04-29T17:06:47;20.10;13.80
32895;DHT22;19251;49.484;8.260;2023-04-29T17:11:49;20.00;14.20
32895;DHT22;19251;49.484;8.260;2023-04-29T17:16:51;20.00;14.40
32895;DHT22;19251;49.484;8.260;2023-04-29T17:21:53;19.80;14.40
32895;DHT22;19251;49.484;8.260;2023-04-29T17:26:55;19.60;14.50
32895;DHT22;19251;49.484;8.260;2023-04-29T17:31:57;19.50;14.60
32895;DHT22;19251;49.484;8.260;2023-04-29T17:37:04;19.30;15.10
32895;DHT22;19251;49.484;8.260;2023-04-29T17:42:06;19.10;15.40
32895;DHT22;19251;49.484;8.260;2023-04-29T17:47:08;18.90;15.50
32895;DHT22;19251;49.484;8.260;2023-04-29T17:52:11;18.80;15.70
32895;DHT22;19251;49.484;8.260;2023-04-29T17:57:14;18.60;15.90
32895;DHT22;19251;49.484;8.260;2023-04-29T18:02:17;18.50;16.20
32895;DHT22;19251;49.484;8.260;2023-04-29T18:07:19;18.40;16.40
32895;DHT22;19251;49.484;8.260;2023-04-29T18:12:21;18.40;16.50
32895;DHT22;19251;49.484;8.260;2023-04-29T18:17:23;18.20;16.80
32895;DHT22;19251;49.484;8.260;2023-04-29T18:22:25;18.20;16.80
32895;DHT22;19251;49.484;8.260;2023-04-29T18:27:27;18.10;17.00
32895;DHT22;19251;49.484;8.260;2023-04-29T18:32:29;17.90;17.30
32895;DHT22;19251;49.484;8.260;2023-04-29T18:37:31;17.90;17.60
32895;DHT22;19251;49.484;8.260;2023-04-29T18:42:33;17.80;17.80
32895;DHT22;19251;49.484;8.260;2023-04-29T18:47:35;17.70;17.90
32895;DHT22;19251;49.484;8.260;2023-04-29T18:52:38;17.70;18.00
32895;DHT22;19251;49.484;8.260;2023-04-29T18:57:40;17.60;19.40
32895;DHT22;19251;49.484;8.260;2023-04-29T19:02:42;17.60;18.40
32895;DHT22;19251;49.484;8.260;2023-04-29T19:07:44;17.50;18.50
32895;DHT22;19251;49.484;8.260;2023-04-29T19:12:46;17.50;18.70
32895;DHT22;19251;49.484;8.260;2023-04-29T19:17:48;17.50;18.90
32895;DHT22;19251;49.484;8.260;2023-04-29T19:22:50;17.50;19.60
32895;DHT22;19251;49.484;8.260;2023-04-29T19:27:52;17.40;18.90
32895;DHT22;19251;49.484;8.260;2023-04-29T19:32:54;17.50;19.60
32895;DHT22;19251;49.484;8.260;2023-04-29T19:37:56;17.30;19.00
32895;DHT22;19251;49.484;8.260;2023-04-29T19:42:58;17.30;19.40
32895;DHT22;19251;49.484;8.260;2023-04-29T19:48:01;17.20;19.30
32895;DHT22;19251;49.484;8.260;2023-04-29T19:53:03;17.20;19.40
32895;DHT22;19251;49.484;8.260;2023-04-29T19:58:05;17.10;19.60
32895;DHT22;19251;49.484;8.260;2023-04-29T20:03:07;17.10;19.90
32895;DHT22;19251;49.484;8.260;2023-04-29T20:08:09;17.00;20.00
32895;DHT22;19251;49.484;8.260;2023-04-29T20:13:11;16.90;20.00
32895;DHT22;19251;49.484;8.260;2023-04-29T20:18:14;16.90;20.20
32895;DHT22;19251;49.484;8.260;2023-04-29T20:23:16;16.90;20.90
32895;DHT22;19251;49.484;8.260;2023-04-29T20:28:18;16.80;20.40
32895;DHT22;19251;49.484;8.260;2023-04-29T20:33:20;16.80;20.40
32895;DHT22;19251;49.484;8.260;2023-04-29T20:38:22;16.80;20.50
32895;DHT22;19251;49.484;8.260;2023-04-29T20:43:25;16.80;20.40
32895;DHT22;19251;49.484;8.260;2023-04-29T20:48:27;16.70;20.40
32895;DHT22;19251;49.484;8.260;2023-04-29T20:53:29;16.70;20.50
32895;DHT22;19251;49.484;8.260;2023-04-29T20:58:32;16.70;20.50
32895;DHT22;19251;49.484;8.260;2023-04-29T21:03:34;16.60;20.40
32895;DHT22;19251;49.484;8.260;2023-04-29T21:08:36;16.50;20.50
32895;DHT22;19251;49.484;8.260;2023-04-29T21:13:38;16.50;20.60
32895;DHT22;19251;49.484;8.260;2023-04-29T21:18:40;16.40;20.70
32895;DHT22;19251;49.484;8.260;2023-04-29T21:23:42;16.30;20.70
32895;DHT22;19251;49.484;8.260;2023-04-29T21:28:44;16.30;20.90
32895;DHT22;19251;49.484;8.260;2023-04-29T21:33:46;16.30;20.90
32895;DHT22;19251;49.484;8.260;2023-04-29T21:38:48;16.30;21.00
32895;DHT22;19251;49.484;8.260;2023-04-29T21:43:51;16.20;21.00
32895;DHT22;19251;49.484;8.260;2023-04-29T21:48:54;16.20;21.10
32895;DHT22;19251;49.484;8.260;2023-04-29T21:53:57;16.20;21.20
32895;DHT22;19251;49.484;8.260;2023-04-29T21:58:59;16.20;21.20
32895;DHT22;19251;49.484;8.260;2023-04-29T22:04:01;16.10;21.30
32895;DHT22;19251;49.484;8.260;2023-04-29T22:09:04;16.10;21.30
32895;DHT22;19251;49.484;8.260;2023-04-29T22:14:07;16.10;21.40
32895;DHT22;19251;49.484;8.260;2023-04-29T22:19:09;16.10;21.50
32895;DHT22;19251;49.484;8.260;2023-04-29T22:24:11;16.10;21.50
32895;DHT22;19251;49.484;8.260;2023-04-29T22:29:13;16.10;21.50
32895;DHT22;19251;49.484;8.260;2023-04-29T22:34:15;16.10;21.60
32895;DHT22;19251;49.484;8.260;2023-04-29T22:39:17;16.10;21.60
32895;DHT22;19251;49.484;8.260;2023-04-29T22:44:19;16.00;21.70
32895;DHT22;19251;49.484;8.260;2023-04-29T22:49:21;16.00;21.70
32895;DHT22;19251;49.484;8.260;2023-04-29T22:54:23;15.90;21.80
32895;DHT22;19251;49.484;8.260;2023-04-29T22:59:25;15.90;21.90
32895;DHT22;19251;49.484;8.260;2023-04-29T23:04:28;15.80;22.00
32895;DHT22;19251;49.484;8.260;2023-04-29T23:09:31;15.80;22.00
32895;DHT22;19251;49.484;8.260;2023-04-29T23:14:33;15.80;22.10
32895;DHT22;19251;49.484;8.260;2023-04-29T23:19:35;15.80;22.10
32895;DHT22;19251;49.484;8.260;2023-04-29T23:24:38;15.80;22.10
32895;DHT22;19251;49.484;8.260;2023-04-29T23:29:41;15.80;22.20
32895;DHT22;19251;49.484;8.260;2023-04-29T23:34:43;15.90;22.30
32895;DHT22;19251;49.484;8.260;2023-04-29T23:39:45;15.80;22.20
32895;DHT22;19251;49.484;8.260;2023-04-29T23:44:47;15.80;22.80
32895;DHT22;19251;49.484;8.260;2023-04-29T23:49:49;15.80;22.30
32895;DHT22;19251;49.484;8.260;2023-04-29T23:54:51;15.80;22.30
32895;DHT22;19251;49.484;8.260;2023-04-29T23:59:53;15.80;22.20
